Time;durP1;ratioP1;P1;durP2;ratioP2;P2;SDS_P1;SDS_P2;PMS_P1;PMS_P2;Temp;Humidity;BMP_temperature;BMP_pressure;BME280_temperature;BME280_humidity;BME280_pressure;Samples;Min_cycle;Max_cycle;Signal;HPM_P1;HPM_P2
2020/12/11 00:00:21;;;;;;;7.37;4.20;;;2.90;69.20;;;;;;2237547;56;20977;-72
2020/12/11 00:02:48;;;;;;;8.60;4.50;;;2.90;69.20;;;;;;2461297;55;21000;-72
2020/12/11 00:05:17;;;;;;;7.95;3.87;;;2.90;69.20;;;;;;2231709;55;20982;-72
2020/12/11 00:07:45;;;;;;;7.55;4.40;;;2.90;69.20;;;;;;2233834;56;21024;-72
2020/12/11 00:10:14;;;;;;;6.75;3.90;;;2.90;69.20;;;;;;2452952;55;20959;-72
2020/12/11 00:12:41;;;;;;;7.32;4.20;;;3.00;69.20;;;;;;2235546;56;21897;-72
2020/12/11 00:15:10;;;;;;;6.72;3.42;;;2.90;69.00;;;;;;2228194;55;21090;-72
2020/12/11 00:17:36;;;;;;;6.95;3.72;;;3.00;69.10;;;;;;2443203;55;21038;-72
2020/12/11 00:20:06;;;;;;;7.68;4.20;;;3.00;69.00;;;;;;2230461;55;20990;-72
2020/12/11 00:22:35;;;;;;;8.35;3.85;;;3.00;69.00;;;;;;2442511;55;21024;-72
2020/12/11 00:25:02;;;;;;;7.55;4.30;;;2.90;68.90;;;;;;2223684;55;20936;-72
2020/12/11 00:27:29;;;;;;;7.00;4.10;;;2.90;68.90;;;;;;2239250;56;20940;-72
2020/12/11 00:29:56;;;;;;;5.65;3.15;;;2.90;69.00;;;;;;2227100;56;21014;-72
2020/12/11 00:32:22;;;;;;;7.30;4.30;;;2.90;68.90;;;;;;2441566;55;20999;-72
2020/12/11 00:34:49;;;;;;;7.75;4.12;;;2.90;68.80;;;;;;2451165;55;20965;-72
2020/12/11 00:37:16;;;;;;;8.70;4.28;;;2.90;68.70;;;;;;2238014;56;20968;-72
2020/12/11 00:39:42;;;;;;;10.15;4.90;;;3.00;68.60;;;;;;2231012;55;20963;-71
2020/12/11 00:42:10;;;;;;;9.85;5.22;;;2.90;68.50;;;;;;2454203;55;20961;-72
2020/12/11 00:44:38;;;;;;;9.57;5.32;;;2.90;68.80;;;;;;2232057;55;21308;-72
2020/12/11 00:47:04;;;;;;;10.27;5.28;;;2.90;69.20;;;;;;2232789;56;20971;-72
2020/12/11 00:49:35;;;;;;;26.48;9.30;;;3.00;69.70;;;;;;2228119;55;21015;-72
2020/12/11 00:52:11;;;;;;;23.83;9.57;;;3.00;70.00;;;;;;2418935;56;21062;-72
2020/12/11 00:54:37;;;;;;;18.37;7.30;;;3.00;70.00;;;;;;2224306;55;20961;-72
2020/12/11 00:57:06;;;;;;;11.73;6.18;;;3.00;70.10;;;;;;2450514;56;21610;-72
2020/12/11 00:59:33;;;;;;;24.35;15.25;;;3.10;70.10;;;;;;2418730;56;21109;-72
2020/12/11 01:02:02;;;;;;;13.88;9.43;;;3.10;69.90;;;;;;2226435;56;20964;-72
2020/12/11 01:04:29;;;;;;;10.95;6.85;;;3.10;69.60;;;;;;2236953;56;20984;-72
2020/12/11 01:06:56;;;;;;;12.32;5.95;;;3.10;69.30;;;;;;2238453;56;20984;-72
2020/12/11 01:09:23;;;;;;;7.78;4.90;;;3.10;69.10;;;;;;2238224;56;20961;-72
2020/12/11 01:11:50;;;;;;;9.63;5.07;;;3.10;68.90;;;;;;2238520;55;21408;-72
2020/12/11 01:14:16;;;;;;;11.77;5.20;;;2.90;68.60;;;;;;2461496;56;20977;-72
2020/12/11 01:16:44;;;;;;;11.50;5.80;;;3.10;68.70;;;;;;2462234;55;20980;-72
2020/12/11 01:19:12;;;;;;;10.32;5.15;;;3.10;68.70;;;;;;2238223;56;20997;-72
2020/12/11 01:21:38;;;;;;;9.50;4.87;;;3.10;68.80;;;;;;2237455;56;21004;-72
2020/12/11 01:24:05;;;;;;;8.73;4.57;;;3.00;68.70;;;;;;2449297;56;21852;-72
2020/12/11 01:26:31;;;;;;;9.63;5.45;;;3.00;68.70;;;;;;2453617;55;21004;-72
2020/12/11 01:28:58;;;;;;;8.82;4.68;;;3.00;68.60;;;;;;2442939;55;21551;-72
2020/12/11 01:31:25;;;;;;;9.10;4.68;;;3.00;68.50;;;;;;2232965;55;20981;-72
2020/12/11 01:33:53;;;;;;;8.45;4.62;;;3.00;68.50;;;;;;2237842;56;21009;-72
2020/12/11 01:36:24;;;;;;;9.52;4.70;;;3.00;68.30;;;;;;2227664;56;20966;-72
2020/12/11 01:38:50;;;;;;;8.63;4.45;;;3.00;68.10;;;;;;2451298;55;21019;-72
2020/12/11 01:41:17;;;;;;;9.38;4.45;;;2.90;68.00;;;;;;2224512;55;21519;-72
2020/12/11 01:43:44;;;;;;;9.40;4.07;;;2.90;68.00;;;;;;2238803;56;21012;-71
2020/12/11 01:46:17;;;;;;;7.62;3.53;;;2.90;68.10;;;;;;2419830;56;21337;-71
2020/12/11 01:48:44;;;;;;;7.03;3.83;;;2.90;68.10;;;;;;2419020;56;21067;-72
2020/12/11 01:51:12;;;;;;;6.18;3.10;;;2.80;68.00;;;;;;2205842;57;21127;-71
2020/12/11 01:53:40;;;;;;;8.00;3.90;;;2.80;67.90;;;;;;2459363;55;21867;-71
2020/12/11 01:56:07;;;;;;;7.68;4.03;;;2.80;68.00;;;;;;2228666;55;20928;-72
2020/12/11 01:58:34;;;;;;;6.60;3.40;;;2.80;68.00;;;;;;2226387;55;21670;-72
2020/12/11 02:01:03;;;;;;;7.05;3.53;;;2.80;68.00;;;;;;2238744;56;21000;-71
2020/12/11 02:03:29;;;;;;;6.28;3.37;;;2.70;67.90;;;;;;2226216;55;20970;-72
2020/12/11 02:05:57;;;;;;;6.45;3.25;;;2.70;67.90;;;;;;2227354;55;21813;-71
2020/12/11 02:08:23;;;;;;;7.65;3.47;;;2.70;67.80;;;;;;2231360;55;21027;-71
2020/12/11 02:10:51;;;;;;;6.70;3.60;;;2.70;67.80;;;;;;2449655;55;21016;-71
2020/12/11 02:13:18;;;;;;;6.37;3.10;;;2.60;67.70;;;;;;2239389;56;22147;-72
2020/12/11 02:15:45;;;;;;;5.93;2.90;;;2.60;67.70;;;;;;2229516;55;20962;-71
2020/12/11 02:18:11;;;;;;;7.72;4.15;;;2.60;67.70;;;;;;2224069;55;21051;-71
2020/12/11 02:20:38;;;;;;;7.75;4.25;;;2.60;67.70;;;;;;2227782;56;20971;-71
2020/12/11 02:23:04;;;;;;;7.95;4.45;;;2.50;67.70;;;;;;2234684;55;21063;-71
2020/12/11 02:25:30;;;;;;;9.05;4.55;;;2.50;67.90;;;;;;2223623;55;20965;-71
2020/12/11 02:27:57;;;;;;;7.93;4.30;;;2.50;68.10;;;;;;2238322;56;20933;-71
2020/12/11 02:30:28;;;;;;;8.00;4.30;;;2.50;68.20;;;;;;2444514;56;21056;-71
2020/12/11 02:32:55;;;;;;;7.70;4.15;;;2.50;68.20;;;;;;2240924;56;20969;-71
2020/12/11 02:35:22;;;;;;;6.40;3.40;;;2.50;68.20;;;;;;2237763;56;21313;-71
2020/12/11 02:37:49;;;;;;;8.00;4.15;;;2.50;68.20;;;;;;2447123;56;21474;-71
2020/12/11 02:40:15;;;;;;;7.82;4.10;;;2.50;68.20;;;;;;2236287;56;21585;-71
2020/12/11 02:42:42;;;;;;;7.22;4.05;;;2.40;68.10;;;;;;2460633;55;21872;-71
2020/12/11 02:45:08;;;;;;;7.30;3.62;;;2.40;68.10;;;;;;2224795;55;20982;-71
2020/12/11 02:47:35;;;;;;;7.97;4.07;;;2.40;68.10;;;;;;2453500;56;21003;-71
2020/12/11 02:50:01;;;;;;;7.40;3.97;;;2.40;68.10;;;;;;2231967;56;21000;-71
2020/12/11 02:52:28;;;;;;;6.65;3.72;;;2.40;68.10;;;;;;2442427;55;21007;-71
2020/12/11 02:54:57;;;;;;;7.35;3.62;;;2.40;68.20;;;;;;2228734;55;20959;-71
2020/12/11 02:57:24;;;;;;;6.25;3.28;;;2.40;68.10;;;;;;2230647;55;20977;-71
2020/12/11 02:59:51;;;;;;;6.50;3.65;;;2.40;68.20;;;;;;2447573;55;21015;-72
2020/12/11 03:02:17;;;;;;;6.68;3.67;;;2.40;68.10;;;;;;2441797;55;20963;-71
2020/12/11 03:04:44;;;;;;;6.75;3.28;;;2.40;68.00;;;;;;2455424;55;21052;-71
2020/12/11 03:07:11;;;;;;;6.40;3.10;;;2.30;68.00;;;;;;2462947;56;21016;-71
2020/12/11 03:09:38;;;;;;;7.65;4.30;;;2.30;68.00;;;;;;2229605;55;21479;-71
2020/12/11 03:12:05;;;;;;;7.70;3.85;;;2.30;68.00;;;;;;2453357;55;21110;-71
2020/12/11 03:14:31;;;;;;;6.97;3.95;;;2.30;68.00;;;;;;2462069;55;21033;-71
2020/12/11 03:16:59;;;;;;;6.95;3.90;;;2.30;68.00;;;;;;2236003;56;21469;-71
2020/12/11 03:19:26;;;;;;;6.90;3.50;;;2.30;68.00;;;;;;2224497;55;20962;-71
2020/12/11 03:21:53;;;;;;;7.53;3.62;;;2.30;68.00;;;;;;2232951;55;21429;-71
2020/12/11 03:24:20;;;;;;;6.87;3.60;;;2.30;68.00;;;;;;2227065;56;20966;-71
2020/12/11 03:26:47;;;;;;;6.28;3.33;;;2.20;67.90;;;;;;2447659;56;21511;-71
2020/12/11 03:29:14;;;;;;;6.00;3.40;;;2.20;67.80;;;;;;2441968;56;21035;-71
2020/12/11 03:31:41;;;;;;;5.15;2.83;;;2.20;67.80;;;;;;2235543;56;21100;-71
2020/12/11 03:34:08;;;;;;;6.55;3.10;;;2.20;67.90;;;;;;2241044;56;20968;-71
2020/12/11 03:36:35;;;;;;;6.37;3.33;;;2.20;67.90;;;;;;2441297;56;21058;-71
2020/12/11 03:39:02;;;;;;;7.78;3.80;;;2.20;68.00;;;;;;2417897;56;20987;-71
2020/12/11 03:41:28;;;;;;;7.78;3.45;;;2.20;68.00;;;;;;2226234;56;20985;-71
2020/12/11 03:43:55;;;;;;;6.05;3.22;;;2.10;68.00;;;;;;2236792;55;21007;-71
2020/12/11 03:46:22;;;;;;;6.25;3.62;;;2.10;68.00;;;;;;2441108;55;21001;-71
2020/12/11 03:48:50;;;;;;;6.43;3.37;;;2.10;68.10;;;;;;2228122;56;21464;-71
2020/12/11 03:51:21;;;;;;;7.93;3.90;;;2.10;68.20;;;;;;2446424;55;21023;-71
2020/12/11 03:53:50;;;;;;;8.07;3.85;;;2.10;68.40;;;;;;2454514;55;21097;-71
2020/12/11 03:56:18;;;;;;;6.78;3.42;;;2.10;68.60;;;;;;2461084;55;20975;-71
2020/12/11 03:58:45;;;;;;;9.48;3.90;;;2.20;68.90;;;;;;2230815;56;21010;-71
2020/12/11 04:01:12;;;;;;;6.40;3.75;;;2.20;69.10;;;;;;2234775;55;20992;-71
2020/12/11 04:03:39;;;;;;;5.62;3.10;;;2.20;69.30;;;;;;2461476;55;21020;-71
2020/12/11 04:06:14;;;;;;;6.45;3.25;;;2.30;69.60;;;;;;2461852;55;21041;-71
2020/12/11 04:08:41;;;;;;;7.53;3.42;;;2.30;69.80;;;;;;2239587;56;21371;-71
2020/12/11 04:11:10;;;;;;;7.25;3.53;;;2.30;69.90;;;;;;2226013;56;20976;-70
2020/12/11 04:13:37;;;;;;;7.60;3.90;;;2.30;70.10;;;;;;2229215;55;21036;-71
2020/12/11 04:16:04;;;;;;;6.37;3.33;;;2.40;70.30;;;;;;2461881;55;20949;-71
2020/12/11 04:18:30;;;;;;;6.78;3.30;;;2.40;70.30;;;;;;2237529;55;20982;-71
2020/12/11 04:20:57;;;;;;;5.57;3.45;;;2.50;70.50;;;;;;2450940;55;20992;-71
2020/12/11 04:23:24;;;;;;;5.82;2.85;;;2.50;70.40;;;;;;2232565;56;21063;-71
2020/12/11 04:25:53;;;;;;;5.07;2.58;;;2.60;70.50;;;;;;2454581;55;21851;-71
2020/12/11 04:28:20;;;;;;;5.80;3.08;;;2.70;70.50;;;;;;2239748;56;20972;-71
2020/12/11 04:30:47;;;;;;;8.32;3.92;;;2.80;70.50;;;;;;2237775;56;20953;-71
2020/12/11 04:33:13;;;;;;;6.87;3.87;;;2.70;70.30;;;;;;2237666;56;20988;-71
2020/12/11 04:35:40;;;;;;;7.57;3.80;;;2.80;70.30;;;;;;2418163;56;21016;-71
2020/12/11 04:38:07;;;;;;;7.70;4.15;;;2.80;70.30;;;;;;2462200;55;21009;-71
2020/12/11 04:40:33;;;;;;;6.47;3.42;;;2.80;70.30;;;;;;2443280;56;21882;-71
2020/12/11 04:43:02;;;;;;;10.23;4.35;;;2.90;70.30;;;;;;2461767;55;21500;-71
2020/12/11 04:45:29;;;;;;;8.07;3.92;;;2.90;70.20;;;;;;2226456;56;21071;-70
2020/12/11 04:47:56;;;;;;;7.30;3.62;;;2.90;70.10;;;;;;2239195;56;21446;-71
2020/12/11 04:50:22;;;;;;;9.88;4.80;;;3.00;70.20;;;;;;2242296;56;21048;-71
2020/12/11 04:52:49;;;;;;;9.55;4.65;;;3.00;70.10;;;;;;2229368;55;21010;-71
2020/12/11 04:55:17;;;;;;;10.27;5.05;;;3.00;70.10;;;;;;2441217;55;21519;-71
2020/12/11 04:57:48;;;;;;;9.05;5.15;;;3.00;70.00;;;;;;2232322;56;20995;-71
2020/12/11 05:00:15;;;;;;;11.00;5.55;;;3.10;70.20;;;;;;2416817;56;20970;-71
2020/12/11 05:02:42;;;;;;;9.50;5.28;;;3.10;70.20;;;;;;2227413;55;20984;-71
2020/12/11 05:05:09;;;;;;;9.82;5.07;;;3.10;70.30;;;;;;2460843;55;20988;-71
2020/12/11 05:07:36;;;;;;;9.13;5.18;;;3.10;70.40;;;;;;2227288;56;21572;-71
2020/12/11 05:10:03;;;;;;;10.90;5.78;;;3.20;70.60;;;;;;2238304;56;21064;-70
2020/12/11 05:12:30;;;;;;;10.73;5.30;;;3.20;70.70;;;;;;2238234;56;21775;-71
2020/12/11 05:14:59;;;;;;;9.57;5.53;;;3.30;70.80;;;;;;2461694;55;21255;-71
2020/12/11 05:17:30;;;;;;;11.70;5.82;;;3.30;70.80;;;;;;2230303;56;21002;-71
2020/12/11 05:19:59;;;;;;;10.80;5.90;;;3.50;70.80;;;;;;2449141;55;20982;-70
2020/12/11 05:22:31;;;;;;;9.48;5.28;;;3.40;70.40;;;;;;2230223;56;21825;-71
2020/12/11 05:24:58;;;;;;;8.07;4.37;;;3.40;70.00;;;;;;2448968;55;21159;-71
2020/12/11 05:27:43;;;;;;;7.53;3.72;;;3.40;69.60;;;;;;2457920;55;20998;-71
2020/12/11 05:30:27;;;;;;;8.80;4.32;;;3.40;69.40;;;;;;2442887;55;21950;-71
2020/12/11 05:32:57;;;;;;;6.93;3.62;;;3.40;68.90;;;;;;2461426;55;20957;-71
2020/12/11 05:35:31;;;;;;;7.30;3.90;;;3.40;68.90;;;;;;2237757;56;20976;-71
2020/12/11 05:38:02;;;;;;;7.97;3.97;;;3.40;68.80;;;;;;2462437;55;20977;-71
2020/12/11 05:40:37;;;;;;;7.50;3.80;;;3.30;68.70;;;;;;2230182;56;20971;-70
2020/12/11 05:43:16;;;;;;;7.62;3.80;;;3.30;68.50;;;;;;2231431;55;20999;-70
2020/12/11 05:45:58;;;;;;;9.13;4.15;;;3.30;68.40;;;;;;2224764;56;21652;-70
2020/12/11 05:48:40;;;;;;;8.80;4.37;;;3.30;68.30;;;;;;2446141;56;20975;-70
2020/12/11 05:51:14;;;;;;;8.57;4.82;;;3.20;68.20;;;;;;2233372;56;21126;-70
2020/12/11 05:53:41;;;;;;;6.75;3.33;;;3.20;68.10;;;;;;2231831;56;21284;-70
2020/12/11 05:56:07;;;;;;;9.85;4.55;;;3.20;68.00;;;;;;2234798;55;21027;-70
2020/12/11 05:58:34;;;;;;;9.35;4.47;;;3.10;68.00;;;;;;2453940;55;21013;-71
2020/12/11 06:01:01;;;;;;;11.02;5.95;;;3.10;68.00;;;;;;2455371;55;21013;-71
2020/12/11 06:03:27;;;;;;;11.82;6.35;;;3.10;68.10;;;;;;2448724;56;21104;-70
2020/12/11 06:05:56;;;;;;;11.52;5.72;;;3.10;68.10;;;;;;2238389;55;21543;-70
2020/12/11 06:08:25;;;;;;;11.90;5.87;;;3.00;68.10;;;;;;2237784;56;21025;-70
2020/12/11 06:10:51;;;;;;;9.35;5.32;;;3.00;68.20;;;;;;2445317;56;21181;-70
2020/12/11 06:13:36;;;;;;;8.57;4.57;;;3.00;68.70;;;;;;2236858;56;21020;-70
2020/12/11 06:16:06;;;;;;;9.57;5.25;;;3.00;67.80;;;;;;2240594;56;20948;-70
2020/12/11 06:18:33;;;;;;;9.10;4.72;;;2.90;68.70;;;;;;2239323;56;21044;-71
2020/12/11 06:21:00;;;;;;;11.90;5.90;;;2.90;67.90;;;;;;2223643;55;21641;-70
2020/12/11 06:23:30;;;;;;;10.48;6.07;;;2.90;67.90;;;;;;2442901;55;21003;-70
2020/12/11 06:25:57;;;;;;;11.18;5.93;;;2.90;68.00;;;;;;2461754;55;21393;-70
2020/12/11 06:28:48;;;;;;;9.45;5.15;;;2.80;68.00;;;;;;2233784;55;25402;-70
2020/12/11 06:31:17;;;;;;;9.73;4.82;;;2.80;67.90;;;;;;2443000;55;21047;-70
2020/12/11 06:33:47;;;;;;;9.52;4.97;;;2.80;68.00;;;;;;2228598;55;21028;-70
2020/12/11 06:36:13;;;;;;;8.68;4.55;;;2.80;68.00;;;;;;2446181;55;21075;-70
2020/12/11 06:38:59;;;;;;;8.25;4.28;;;2.70;68.00;;;;;;2239326;55;21734;-70
2020/12/11 06:41:44;;;;;;;8.55;4.57;;;2.70;67.90;;;;;;2461501;55;20977;-70
2020/12/11 06:44:26;;;;;;;8.73;4.40;;;2.70;67.90;;;;;;2237501;56;20952;-70
2020/12/11 06:47:09;;;;;;;10.40;5.33;;;2.70;67.90;;;;;;2462492;55;21016;-70
2020/12/11 06:50:22;;;;;;;7.47;4.10;;;2.60;67.70;;;;;;2237780;56;20944;-70
2020/12/11 06:52:48;;;;;;;;;;;2.70;67.90;;;;;;2450998;55;21430;-70
2020/12/11 06:55:15;;;;;;;8.85;4.22;;;2.60;67.40;;;;;;2459129;55;20084;-70
2020/12/11 06:57:43;;;;;;;9.55;4.50;;;2.60;67.70;;;;;;2231478;56;21155;-71
2020/12/11 07:00:31;;;;;;;8.40;4.75;;;2.60;67.80;;;;;;2231348;56;21083;-70
2020/12/11 07:03:21;;;;;;;10.45;5.45;;;2.50;67.70;;;;;;2443370;55;21078;-70
2020/12/11 07:05:58;;;;;;;10.32;5.30;;;2.50;67.90;;;;;;2461832;55;20981;-71
2020/12/11 07:08:26;;;;;;;11.90;5.40;;;2.50;68.20;;;;;;2451139;56;21016;-70
2020/12/11 07:10:53;;;;;;;9.10;4.75;;;2.50;68.30;;;;;;2233082;56;21008;-70
2020/12/11 07:13:20;;;;;;;9.85;5.05;;;2.50;68.40;;;;;;2238902;56;21043;-71
2020/12/11 07:15:55;;;;;;;10.27;5.15;;;2.50;68.40;;;;;;2239015;56;21048;-70
2020/12/11 07:18:22;;;;;;;8.20;4.37;;;2.50;68.50;;;;;;2233477;55;21031;-71
2020/12/11 07:20:53;;;;;;;10.07;4.57;;;2.50;68.50;;;;;;2225529;55;20955;-71
2020/12/11 07:23:20;;;;;;;8.25;4.40;;;2.50;68.60;;;;;;2231248;56;21448;-71
2020/12/11 07:25:47;;;;;;;8.63;4.45;;;2.50;68.70;;;;;;2454876;56;20964;-70
2020/12/11 07:28:17;;;;;;;8.02;3.92;;;2.50;68.90;;;;;;2238804;56;21040;-71
2020/12/11 07:30:46;;;;;;;10.23;4.95;;;2.50;69.00;;;;;;2452935;55;20946;-71
2020/12/11 07:33:12;;;;;;;10.05;5.00;;;2.50;69.10;;;;;;2453966;55;21767;-70
2020/12/11 07:35:46;;;;;;;9.07;5.00;;;2.60;69.20;;;;;;2206015;57;21437;-70
2020/12/11 07:38:13;;;;;;;10.27;5.40;;;2.60;69.40;;;;;;2421100;56;20984;-70
2020/12/11 07:40:42;;;;;;;8.32;4.55;;;2.60;69.40;;;;;;2462142;55;21879;-71
2020/12/11 07:43:10;;;;;;;10.25;5.43;;;2.60;69.50;;;;;;2461892;56;21492;-71
2020/12/11 07:45:37;;;;;;;10.20;5.18;;;2.70;69.60;;;;;;2231585;56;21062;-70
2020/12/11 07:48:04;;;;;;;8.93;4.70;;;2.60;69.50;;;;;;2235730;56;21751;-70
2020/12/11 07:50:30;;;;;;;10.55;5.85;;;2.70;69.60;;;;;;2227601;56;20968;-71
2020/12/11 07:52:58;;;;;;;10.75;5.78;;;2.70;69.70;;;;;;2446256;55;20984;-71
2020/12/11 07:55:27;;;;;;;9.32;5.30;;;2.70;69.80;;;;;;2461635;56;21013;-71
2020/12/11 07:57:58;;;;;;;10.93;5.95;;;2.80;70.10;;;;;;2461846;55;21013;-71
2020/12/11 08:00:25;;;;;;;12.57;7.03;;;2.80;70.40;;;;;;2235634;56;21940;-71
2020/12/11 08:02:56;;;;;;;12.18;7.07;;;2.90;70.70;;;;;;2232661;56;21012;-71
2020/12/11 08:05:23;;;;;;;11.60;6.55;;;2.90;71.00;;;;;;2461971;55;21044;-69
2020/12/11 08:07:53;;;;;;;12.07;6.50;;;3.00;71.40;;;;;;2239668;56;21007;-71
2020/12/11 08:10:21;;;;;;;14.18;7.97;;;3.10;71.70;;;;;;2223394;55;21014;-71
2020/12/11 08:13:18;;;;;;;14.45;7.82;;;3.20;71.80;;;;;;2231128;55;20945;-71
2020/12/11 08:15:45;;;;;;;11.40;6.37;;;3.30;71.90;;;;;;2207138;57;21513;-71
2020/12/11 08:18:14;;;;;;;11.65;6.75;;;3.40;72.10;;;;;;2238521;56;21738;-71
2020/12/11 08:21:42;;;;;;;10.25;5.70;;;3.40;72.10;;;;;;2461896;55;21000;-70
2020/12/11 08:24:10;;;;;;;10.48;5.90;;;3.60;71.80;;;;;;2455079;55;21015;-70
2020/12/11 08:26:38;;;;;;;12.20;6.25;;;3.70;72.20;;;;;;2440193;55;20998;-70
2020/12/11 08:29:06;;;;;;;11.38;6.78;;;3.60;72.10;;;;;;2235841;55;21040;-70
2020/12/11 08:31:42;;;;;;;12.57;7.10;;;3.80;72.30;;;;;;2446524;55;21071;-70
2020/12/11 08:34:15;;;;;;;12.80;5.87;;;3.90;72.20;;;;;;2461167;56;21759;-70
2020/12/11 08:36:45;;;;;;;11.50;6.03;;;4.00;72.10;;;;;;2451195;55;20979;-70
2020/12/11 08:39:13;;;;;;;10.48;5.53;;;4.00;72.10;;;;;;2234116;56;21551;-70
2020/12/11 08:49:46;;;;;;;12.07;6.05;;;4.30;71.90;;;;;;2238626;56;21012;-70
2020/12/11 08:52:12;;;;;;;15.02;8.00;;;4.40;71.70;;;;;;2447143;56;21746;-72
2020/12/11 08:54:38;;;;;;;13.90;7.85;;;4.40;71.70;;;;;;2457216;55;20960;-71
2020/12/11 08:57:05;;;;;;;16.65;9.23;;;4.50;71.70;;;;;;2445828;56;20953;-71
2020/12/11 08:59:32;;;;;;;15.20;8.80;;;4.50;71.50;;;;;;2225517;55;21030;-72
2020/12/11 09:02:02;;;;;;;18.10;10.18;;;4.60;71.60;;;;;;2232521;55;21012;-72
2020/12/11 09:04:29;;;;;;;14.18;8.25;;;4.60;71.70;;;;;;2462053;55;21836;-72
2020/12/11 09:06:56;;;;;;;15.05;8.80;;;4.70;71.90;;;;;;2239022;56;20964;-71
2020/12/11 09:09:23;;;;;;;18.73;9.98;;;4.70;71.90;;;;;;2445393;56;21042;-72
2020/12/11 09:11:49;;;;;;;17.52;10.82;;;4.80;72.00;;;;;;2206758;57;21044;-72
2020/12/11 09:14:16;;;;;;;16.27;8.73;;;4.80;72.00;;;;;;2442514;55;21077;-71
2020/12/11 09:16:42;;;;;;;16.70;9.32;;;4.90;72.10;;;;;;2225197;55;20951;-71
2020/12/11 09:19:09;;;;;;;16.45;9.30;;;5.00;72.10;;;;;;2443477;55;21041;-71
2020/12/11 09:21:39;;;;;;;13.27;8.07;;;5.00;72.10;;;;;;2240714;56;21449;-71
2020/12/11 09:24:06;;;;;;;13.62;7.80;;;5.10;72.10;;;;;;2224421;56;21029;-71
2020/12/11 09:26:35;;;;;;;13.85;8.93;;;5.20;72.10;;;;;;2462294;55;20964;-71
2020/12/11 09:29:14;;;;;;;13.10;8.05;;;5.20;71.90;;;;;;2230639;56;21027;-71
2020/12/11 09:31:45;;;;;;;11.15;7.10;;;5.30;72.00;;;;;;2229276;55;21082;-71
2020/12/11 09:34:11;;;;;;;13.50;8.48;;;5.30;72.00;;;;;;2441031;55;21006;-71
2020/12/11 09:36:42;;;;;;;15.70;8.68;;;5.40;72.20;;;;;;2236590;55;20960;-71
2020/12/11 09:39:08;;;;;;;12.68;7.70;;;5.50;72.20;;;;;;2448207;55;21031;-71
2020/12/11 09:41:40;;;;;;;11.35;7.03;;;5.50;72.50;;;;;;2453605;55;21883;-71
2020/12/11 09:47:01;;;;;;;13.20;6.82;;;5.70;72.90;;;;;;2234082;56;22112;-71
2020/12/11 09:49:42;;;;;;;8.88;5.80;;;5.80;73.00;;;;;;2206377;56;21063;-72
2020/12/11 09:54:55;;;;;;;10.45;6.40;;;6.00;72.90;;;;;;2225316;55;21009;-71
2020/12/11 09:57:22;;;;;;;11.68;6.45;;;6.10;72.70;;;;;;2455085;55;20955;-72
2020/12/11 09:59:55;;;;;;;10.05;5.43;;;6.10;72.50;;;;;;2441389;55;20978;-72
2020/12/11 10:02:41;;;;;;;9.25;5.50;;;6.20;72.40;;;;;;2227856;55;22437;-71
2020/12/11 10:05:12;;;;;;;9.57;5.60;;;6.30;72.30;;;;;;2461580;55;21036;-72
2020/12/11 10:07:39;;;;;;;9.45;5.45;;;6.30;72.20;;;;;;2238539;56;21028;-72
2020/12/11 10:10:06;;;;;;;8.98;4.82;;;6.30;71.90;;;;;;2237841;56;20995;-72
2020/12/11 10:12:33;;;;;;;8.93;5.62;;;6.40;72.00;;;;;;2238183;56;21431;-72
2020/12/11 10:15:06;;;;;;;10.32;5.78;;;6.40;72.00;;;;;;2234389;55;20999;-72
2020/12/11 10:17:32;;;;;;;11.45;6.60;;;6.50;72.00;;;;;;2208362;56;21030;-72
2020/12/11 10:20:02;;;;;;;12.15;6.78;;;6.50;72.00;;;;;;2460042;55;20953;-72
2020/12/11 10:22:31;;;;;;;11.07;6.18;;;6.60;72.10;;;;;;2237841;56;20952;-72
2020/12/11 10:24:59;;;;;;;12.60;6.25;;;6.60;72.10;;;;;;2227864;56;20967;-71
2020/12/11 10:27:29;;;;;;;11.02;6.03;;;6.70;72.10;;;;;;2445593;55;20979;-72
2020/12/11 10:29:59;;;;;;;10.70;5.93;;;6.70;72.00;;;;;;2442427;55;20922;-72
2020/12/11 10:32:25;;;;;;;10.40;6.07;;;6.80;72.90;;;;;;2441854;55;21059;-72
2020/12/11 10:34:52;;;;;;;10.23;5.80;;;6.80;72.10;;;;;;2450897;55;20965;-72
2020/12/11 10:37:18;;;;;;;9.88;5.95;;;6.90;72.20;;;;;;2462182;55;21517;-72
2020/12/11 10:39:46;;;;;;;9.13;5.55;;;6.90;72.20;;;;;;2461996;55;20933;-72
2020/12/11 10:42:12;;;;;;;10.00;6.12;;;7.00;72.30;;;;;;2237877;56;21081;-72
2020/12/11 10:44:39;;;;;;;10.25;5.90;;;7.00;72.40;;;;;;2237786;56;21541;-72
2020/12/11 10:47:06;;;;;;;9.65;5.95;;;7.10;72.60;;;;;;2238764;56;21124;-72
2020/12/11 10:49:32;;;;;;;9.30;5.57;;;7.20;72.80;;;;;;2232021;55;20963;-72
2020/12/11 10:52:00;;;;;;;8.98;5.35;;;7.30;72.70;;;;;;2233300;55;21012;-72
2020/12/11 10:54:27;;;;;;;9.43;5.70;;;7.30;72.50;;;;;;2450107;56;21800;-72
2020/12/11 10:56:57;;;;;;;9.68;5.20;;;7.40;72.40;;;;;;2449387;56;21071;-72
2020/12/11 10:59:23;;;;;;;6.47;4.37;;;7.40;72.20;;;;;;2229464;56;20956;-72
2020/12/11 11:01:50;;;;;;;8.20;4.85;;;7.50;72.30;;;;;;2455903;55;21070;-71
2020/12/11 11:04:17;;;;;;;8.35;4.85;;;7.50;72.30;;;;;;2440967;55;21042;-72
2020/12/11 11:06:49;;;;;;;9.38;5.25;;;7.60;72.40;;;;;;2441479;56;21047;-72
2020/12/11 11:09:47;;;;;;;8.32;5.37;;;7.70;72.40;;;;;;2239898;56;21684;-72
2020/12/11 11:12:28;;;;;;;8.80;5.22;;;7.70;72.20;;;;;;2445242;55;20984;-72
2020/12/11 11:24:21;;;;;;;9.05;5.15;;;7.80;71.80;;;;;;2206620;57;20957;-72
2020/12/11 11:27:11;;;;;;;9.90;5.72;;;7.90;71.10;;;;;;2238907;56;21328;-72
2020/12/11 11:29:38;;;;;;;11.02;6.18;;;7.90;70.90;;;;;;2462285;55;21061;-72
2020/12/11 11:32:04;;;;;;;12.55;6.90;;;7.90;70.70;;;;;;2453535;56;21011;-72
2020/12/11 11:34:31;;;;;;;15.73;8.18;;;7.90;70.60;;;;;;2226104;55;21005;-72
2020/12/11 11:36:57;;;;;;;16.23;9.07;;;7.80;70.40;;;;;;2451657;55;21047;-72
2020/12/11 11:39:24;;;;;;;13.88;8.30;;;7.80;70.30;;;;;;2229115;55;21528;-72
2020/12/11 11:41:55;;;;;;;13.23;7.62;;;7.80;70.30;;;;;;2446233;55;21076;-72
2020/12/11 11:47:35;;;;;;;48.78;18.17;;;7.80;70.60;;;;;;2446779;55;21868;-72
2020/12/11 11:53:21;;;;;;;19.42;10.77;;;7.80;69.40;;;;;;2233681;56;20984;-72
2020/12/11 11:55:47;;;;;;;14.23;8.52;;;7.80;69.80;;;;;;2448612;55;20983;-72
2020/12/11 11:58:14;;;;;;;13.82;8.63;;;7.80;69.80;;;;;;2420771;56;20985;-72
2020/12/11 12:00:41;;;;;;;13.20;8.27;;;7.80;69.60;;;;;;2462427;55;21827;-71
2020/12/11 12:03:07;;;;;;;13.18;8.18;;;7.70;69.30;;;;;;2454215;55;21118;-72
2020/12/11 12:05:34;;;;;;;18.52;10.57;;;7.70;69.30;;;;;;2442360;55;21899;-72
2020/12/11 12:08:00;;;;;;;14.73;9.32;;;7.70;69.30;;;;;;2449152;55;20981;-73
2020/12/11 12:10:27;;;;;;;16.55;10.23;;;7.70;69.30;;;;;;2238367;56;21004;-72
2020/12/11 12:12:53;;;;;;;13.23;8.60;;;7.60;69.30;;;;;;2237071;56;21072;-72
2020/12/11 12:15:23;;;;;;;13.00;8.25;;;7.60;69.40;;;;;;2238192;56;21441;-73
2020/12/11 12:17:57;;;;;;;13.02;8.25;;;7.60;69.20;;;;;;2206848;56;21007;-72
2020/12/11 12:20:34;;;;;;;14.45;9.15;;;7.60;69.00;;;;;;2239709;56;21419;-72
2020/12/11 12:29:00;;;;;;;12.65;7.40;;;7.50;68.20;;;;;;2232751;56;20980;-72
2020/12/11 12:31:38;;;;;;;12.23;6.97;;;7.40;68.40;;;;;;2230374;56;21508;-72
2020/12/11 12:34:34;;;;;;;13.77;8.13;;;7.30;68.70;;;;;;2237470;55;21796;-72
2020/12/11 12:45:59;;;;;;;11.00;6.25;;;7.10;69.20;;;;;;2206320;56;21046;-73
2020/12/11 12:48:25;;;;;;;10.70;6.72;;;7.10;69.50;;;;;;2442388;55;20991;-73
2020/12/11 12:50:52;;;;;;;10.70;6.03;;;7.10;69.80;;;;;;2443978;55;21028;-72
2020/12/11 12:53:19;;;;;;;10.00;5.95;;;7.10;70.00;;;;;;2430338;55;21026;-73
2020/12/11 12:56:30;;;;;;;10.95;6.15;;;7.10;70.20;;;;;;2219586;55;21076;-73
2020/12/11 12:59:06;;;;;;;10.60;5.75;;;7.10;70.30;;;;;;2227429;56;21840;-73
2020/12/11 13:01:45;;;;;;;9.48;5.43;;;7.10;70.60;;;;;;2459104;55;20949;-72
2020/12/11 13:05:13;;;;;;;11.70;6.03;;;7.10;70.80;;;;;;2207356;57;21037;-72
2020/12/11 13:07:40;;;;;;;8.13;5.47;;;7.10;71.00;;;;;;2453973;56;21091;-73
2020/12/11 13:10:09;;;;;;;7.10;4.32;;;7.20;71.20;;;;;;2439907;55;21063;-73
2020/12/11 13:12:36;;;;;;;6.70;4.28;;;7.20;71.60;;;;;;2227408;55;21860;-72
2020/12/11 13:15:03;;;;;;;9.88;5.22;;;7.30;72.10;;;;;;2227686;56;21038;-73
2020/12/11 13:17:32;;;;;;;9.88;5.55;;;7.30;72.30;;;;;;2452001;56;21460;-73
2020/12/11 13:20:00;;;;;;;9.88;5.22;;;7.30;72.30;;;;;;2454260;55;21016;-73
2020/12/11 13:22:50;;;;;;;8.25;4.82;;;7.40;72.40;;;;;;2240736;56;20965;-73
2020/12/11 13:29:13;;;;;;;6.97;3.87;;;7.50;72.40;;;;;;2434642;55;21135;-73
2020/12/11 13:31:40;;;;;;;8.55;5.62;;;7.60;72.40;;;;;;2442303;55;21047;-73
2020/12/11 13:34:08;;;;;;;6.62;4.65;;;7.70;72.20;;;;;;2448023;55;21027;-73
2020/12/11 13:36:34;;;;;;;7.82;4.72;;;7.70;72.40;;;;;;2445492;56;20944;-73
2020/12/11 13:39:03;;;;;;;7.45;4.07;;;7.70;72.30;;;;;;2238789;56;20960;-73
2020/12/11 13:41:30;;;;;;;5.18;3.03;;;7.80;72.30;;;;;;2460898;55;20952;-73
2020/12/11 13:43:58;;;;;;;5.53;3.20;;;7.80;72.20;;;;;;2227375;56;20955;-73
2020/12/11 13:46:24;;;;;;;5.80;3.47;;;7.80;72.10;;;;;;2442315;55;20951;-73
2020/12/11 13:48:52;;;;;;;5.37;2.95;;;7.80;72.00;;;;;;2235493;56;21124;-73
2020/12/11 13:51:19;;;;;;;5.43;2.92;;;7.90;72.10;;;;;;2461296;55;20985;-73
2020/12/11 13:53:46;;;;;;;5.53;3.20;;;7.90;72.20;;;;;;2224098;56;21437;-73